Kezdőlap
METAR-TAF:

METAR-TAF

Repülőterek :

Ponta Delgada, Azori-szigetek, Portugália

földrajzi szélesség: 37-44N, földrajzi hosszúság: 025-42W, magasság: 71 m

Jelenlegi meteorológiai megfigyelések

A jelentés 11 perccel ezelõtt készült, 01:00 UTC
Északi szél 5 kt
Hőmérséklet 15°C
Páratartalom 82%
Légköri nyomás 1030 hPa
Látótávolság 10 km, vagy több
Kevés felhő 1800 lábon

METAR: LPPD 240100Z 01005KT 9999 FEW018 15/12 Q1030

Idő: 01:11 (01:11 UTC)

Előrejelzés

A jelentés 2 órával és 11 perccel ezelõtt készült, 23:00 UTC
Az előrejelzés 24-én 00 óra UTC és 24-én 24 óra UTC között érvényes
Különbözõ irányokból fújó szél 5 kt
Látótávolság 10 km, vagy több
Szórványos felhőzet 2000 lábon
24-én 00 óra UTC és 24-én 20 óra UTC között ideiglenes
Északnyugati szél 8 kt

TAF: LPPD 232300Z 2400/2424 VRB05KT 9999 SCT020 TEMPO 2400/2420 31008KT

Meteorológiai megfigyelések és előrejelzések több, mint 4000 repülőtéren (METAR és TAF jelentéseket).

A térképen piros és sárga pontok jelzik az elérhető meteorológiai állomásokat.

Mozgassa az egeret a pont fölött, hogy megjelenjen az állomás neve.

Azután kattintson az időjárási megfigyelések és előrejelzések megtekintéséhez.

A térkép megváltoztatása: kattintson a fekete keresztel jelölt zöld gombra ráközelítéshez, a vonallal jelölt zöld gombra távolításhoz, vagy a zöld nyilakra a szomszédos térképek eléréséhez.


METAR-TAF: